createdAt,value
2019-03-06T00:04:19.179Z,5.73
2019-03-06T00:09:23.102Z,5.60
2019-03-06T00:14:26.646Z,5.61
2019-03-06T00:19:30.391Z,5.45
2019-03-06T00:24:33.952Z,5.04
2019-03-06T00:29:37.807Z,4.93
2019-03-06T00:34:41.350Z,5.03
2019-03-06T00:39:46.627Z,4.75
2019-03-06T00:44:50.201Z,4.72
2019-03-06T00:49:53.813Z,5.12
2019-03-06T00:54:57.400Z,5.10
2019-03-06T01:00:01.977Z,5.27
2019-03-06T01:05:07.967Z,5.21
2019-03-06T01:10:13.094Z,4.98
2019-03-06T01:15:17.864Z,4.81
2019-03-06T01:20:21.430Z,4.64
2019-03-06T01:25:25.463Z,4.56
2019-03-06T01:30:29.034Z,4.53
2019-03-06T01:35:34.160Z,4.53
2019-03-06T01:40:45.307Z,4.47
2019-03-06T01:45:48.844Z,4.39
2019-03-06T01:50:52.447Z,4.61
2019-03-06T01:55:56.043Z,4.40
2019-03-06T02:01:01.594Z,4.40
2019-03-06T02:06:05.542Z,4.28
2019-03-06T02:11:09.161Z,4.28
2019-03-06T02:16:12.723Z,4.20
2019-03-06T02:21:16.664Z,4.12
2019-03-06T02:26:20.208Z,4.22
2019-03-06T02:31:23.826Z,4.13
2019-03-06T02:36:27.372Z,3.98
2019-03-06T02:41:30.943Z,3.95
2019-03-06T02:46:34.490Z,4.12
2019-03-06T02:51:38.090Z,4.15
2019-03-06T02:56:41.611Z,4.21
2019-03-06T03:01:53.525Z,3.95
2019-03-06T03:07:04.668Z,3.99
2019-03-06T03:12:08.533Z,3.96
2019-03-06T03:17:12.057Z,3.82
2019-03-06T03:22:15.605Z,3.81
2019-03-06T03:27:19.150Z,3.76
2019-03-06T03:32:22.727Z,3.76
2019-03-06T03:37:26.290Z,3.69
2019-03-06T03:42:29.825Z,3.79
2019-03-06T03:47:33.397Z,3.65
2019-03-06T03:52:36.922Z,3.65
2019-03-06T03:57:40.502Z,3.62
2019-03-06T04:02:44.387Z,3.52
2019-03-06T04:07:48.301Z,3.42
2019-03-06T04:12:51.855Z,3.42
2019-03-06T04:17:55.848Z,3.53
2019-03-06T04:22:59.402Z,3.51
2019-03-06T04:28:02.984Z,3.37
2019-03-06T04:33:06.523Z,3.57
2019-03-06T04:38:10.099Z,3.55
2019-03-06T04:43:13.679Z,3.36
2019-03-06T04:48:17.233Z,3.34
2019-03-06T04:53:20.790Z,3.38
2019-03-06T04:58:26.258Z,3.41
2019-03-06T05:03:29.660Z,3.34
2019-03-06T05:08:33.227Z,3.32
2019-03-06T05:13:36.799Z,3.27
2019-03-06T05:18:41.916Z,3.19
2019-03-06T05:23:45.521Z,3.21
2019-03-06T05:28:49.074Z,3.28
2019-03-06T05:33:52.628Z,3.28
2019-03-06T05:39:09.615Z,3.35
2019-03-06T05:44:13.169Z,3.44
2019-03-06T05:49:16.757Z,3.74
2019-03-06T05:54:20.358Z,3.78
2019-03-06T05:59:23.904Z,5.17
2019-03-06T06:04:27.451Z,7.08
2019-03-06T06:09:31.003Z,7.85
2019-03-06T06:14:34.550Z,8.76
2019-03-06T06:19:38.129Z,9.92
2019-03-06T06:24:43.144Z,10.16
2019-03-06T06:29:46.788Z,11.09
2019-03-06T06:34:50.347Z,10.22
2019-03-06T06:39:53.912Z,11.29
2019-03-06T06:44:57.452Z,11.52
2019-03-06T06:50:01.041Z,14.32
2019-03-06T06:55:23.491Z,15.08
2019-03-06T07:00:52.208Z,13.91
2019-03-06T07:05:57.353Z,14.67
2019-03-06T07:11:08.450Z,15.06
2019-03-06T07:16:25.458Z,14.63
2019-03-06T07:21:30.644Z,16.93
2019-03-06T07:26:38.852Z,17.54
2019-03-06T07:31:43.975Z,16.86
2019-03-06T07:36:58.147Z,17.61
2019-03-06T07:42:03.242Z,18.60
2019-03-06T07:47:11.339Z,17.93
2019-03-06T07:52:33.368Z,15.69
2019-03-06T07:57:57.859Z,12.15
2019-03-06T08:03:06.310Z,13.53
2019-03-06T08:08:09.912Z,19.79
2019-03-06T08:13:16.051Z,20.77
2019-03-06T08:18:21.130Z,21.88
2019-03-06T08:23:38.258Z,21.46
2019-03-06T08:28:41.821Z,20.34
2019-03-06T08:33:45.605Z,21.10
2019-03-06T08:38:49.143Z,20.46
2019-03-06T08:43:52.998Z,23.25
2019-03-06T08:48:58.117Z,22.33
2019-03-06T08:54:06.442Z,22.49
2019-03-06T08:59:27.717Z,24.09
2019-03-06T09:04:32.845Z,24.11
2019-03-06T09:09:37.982Z,23.28
2019-03-06T09:14:55.149Z,23.61
2019-03-06T09:20:00.519Z,24.58
2019-03-06T09:25:08.407Z,20.52
2019-03-06T09:30:16.245Z,21.98
2019-03-06T09:35:23.659Z,22.93
2019-03-06T09:40:43.694Z,21.54
2019-03-06T09:45:54.925Z,17.66
2019-03-06T09:51:16.311Z,15.74
2019-03-06T09:56:24.562Z,15.69
2019-03-06T10:01:41.580Z,15.13
2019-03-06T10:06:52.573Z,14.78
2019-03-06T10:11:57.689Z,15.03
2019-03-06T10:17:17.981Z,14.36
2019-03-06T10:22:21.534Z,14.81
2019-03-06T10:27:25.117Z,14.20
2019-03-06T10:32:28.687Z,13.75
2019-03-06T10:37:32.236Z,13.01
2019-03-06T10:42:35.816Z,14.14
2019-03-06T10:47:39.442Z,13.87
2019-03-06T10:52:43.026Z,13.07
2019-03-06T10:57:46.581Z,13.08
2019-03-06T11:02:50.133Z,13.33
2019-03-06T11:07:54.324Z,13.05
2019-03-06T11:12:57.899Z,12.86
2019-03-06T11:18:01.495Z,13.17
2019-03-06T11:23:11.684Z,12.98
2019-03-06T11:28:15.225Z,12.18
2019-03-06T11:33:19.369Z,12.47
2019-03-06T11:38:23.030Z,12.76
2019-03-06T11:43:26.588Z,12.57
2019-03-06T11:48:30.142Z,12.87
2019-03-06T11:53:33.696Z,12.46
2019-03-06T11:58:37.247Z,12.58
2019-03-06T12:03:40.951Z,12.94
2019-03-06T12:08:45.767Z,12.80
2019-03-06T12:13:49.703Z,12.48
2019-03-06T12:18:53.265Z,12.49
2019-03-06T12:23:57.025Z,12.73
2019-03-06T12:29:00.737Z,12.65
2019-03-06T12:34:05.211Z,12.67
2019-03-06T12:39:08.763Z,12.18
2019-03-06T12:44:12.389Z,12.33
2019-03-06T12:49:15.963Z,12.49
2019-03-06T12:54:19.545Z,12.35
2019-03-06T12:59:23.079Z,12.73
2019-03-06T13:04:26.682Z,12.63
2019-03-06T13:09:30.239Z,12.62
2019-03-06T13:14:33.861Z,12.29
2019-03-06T13:19:37.418Z,12.31
2019-03-06T13:24:40.959Z,12.38
2019-03-06T13:29:45.567Z,12.48
2019-03-06T13:34:50.983Z,12.00
2019-03-06T13:39:54.630Z,12.34
2019-03-06T13:44:58.195Z,12.43
2019-03-06T13:50:01.778Z,12.45
2019-03-06T13:55:16.292Z,12.28
2019-03-06T14:00:20.879Z,12.41
2019-03-06T14:05:24.727Z,12.27
2019-03-06T14:10:29.671Z,12.44
2019-03-06T14:15:33.271Z,12.35
2019-03-06T14:20:36.848Z,12.08
2019-03-06T14:25:40.455Z,12.01
2019-03-06T14:30:44.241Z,12.01
2019-03-06T14:35:47.809Z,12.25
2019-03-06T14:40:51.352Z,12.20
2019-03-06T14:45:55.137Z,12.34
2019-03-06T14:50:58.969Z,12.04
2019-03-06T14:56:02.502Z,11.77
2019-03-06T15:01:06.065Z,11.80
2019-03-06T15:06:09.628Z,11.93
2019-03-06T15:11:13.223Z,11.82
2019-03-06T15:16:16.780Z,11.66
2019-03-06T15:21:20.361Z,11.68
2019-03-06T15:26:23.887Z,11.71
2019-03-06T15:31:27.448Z,11.60
2019-03-06T15:36:32.698Z,11.38
2019-03-06T15:41:36.343Z,11.11
2019-03-06T15:46:39.934Z,11.14
2019-03-06T15:51:43.486Z,10.97
2019-03-06T15:56:47.158Z,10.96
2019-03-06T16:01:50.700Z,10.77
2019-03-06T16:06:54.417Z,10.63
2019-03-06T16:11:58.047Z,10.42
2019-03-06T16:17:01.583Z,10.29
2019-03-06T16:22:05.124Z,10.08
2019-03-06T16:27:08.769Z,9.93
2019-03-06T16:32:12.299Z,9.77
2019-03-06T16:37:15.866Z,9.71
2019-03-06T16:42:19.434Z,9.54
2019-03-06T16:47:23.003Z,9.41
2019-03-06T16:52:26.526Z,9.30
2019-03-06T16:57:30.132Z,9.22
2019-03-06T17:02:34.344Z,9.12
2019-03-06T17:07:38.464Z,8.94
2019-03-06T17:12:42.704Z,8.80
2019-03-06T17:17:47.016Z,8.59
2019-03-06T17:22:51.377Z,8.49
2019-03-06T17:27:55.414Z,8.47
2019-03-06T17:33:10.353Z,8.41
2019-03-06T17:38:15.696Z,8.34
2019-03-06T17:43:19.949Z,8.22
2019-03-06T17:48:24.087Z,8.20
2019-03-06T17:53:28.158Z,8.13
2019-03-06T17:58:32.221Z,8.03
2019-03-06T18:03:40.494Z,8.00
2019-03-06T18:08:44.631Z,7.87
2019-03-06T18:13:48.710Z,7.81
2019-03-06T18:18:52.914Z,7.73
2019-03-06T18:23:57.878Z,7.76
2019-03-06T18:29:01.974Z,7.78
2019-03-06T18:34:06.309Z,7.69
2019-03-06T18:39:12.081Z,7.64
2019-03-06T18:44:16.292Z,7.67
2019-03-06T18:49:20.647Z,7.60
2019-03-06T18:54:24.494Z,7.58
2019-03-06T18:59:28.631Z,7.54
2019-03-06T19:04:32.861Z,7.52
2019-03-06T19:09:37.071Z,7.42
2019-03-06T19:14:42.489Z,7.41
2019-03-06T19:19:46.878Z,7.40
2019-03-06T19:24:51.053Z,7.26
2019-03-06T19:29:55.279Z,7.22
2019-03-06T19:34:59.844Z,7.11
2019-03-06T19:40:04.513Z,7.00
2019-03-06T19:45:22.783Z,7.19
2019-03-06T19:50:27.512Z,7.08
2019-03-06T19:55:31.711Z,7.08
2019-03-06T20:00:35.949Z,7.05
2019-03-06T20:05:40.782Z,7.05
2019-03-06T20:10:45.515Z,6.94
2019-03-06T20:15:49.701Z,6.83
2019-03-06T20:20:53.932Z,6.80
2019-03-06T20:25:58.245Z,6.89
2019-03-06T20:31:02.431Z,6.79
2019-03-06T20:36:06.990Z,6.72
2019-03-06T20:41:11.137Z,6.72
2019-03-06T20:46:16.489Z,6.73
2019-03-06T20:51:20.601Z,6.75
2019-03-06T20:56:24.594Z,6.77
2019-03-06T21:01:31.616Z,6.81
2019-03-06T21:06:36.474Z,6.85
2019-03-06T21:11:40.643Z,6.75
2019-03-06T21:16:44.687Z,6.62
2019-03-06T21:21:48.914Z,6.71
2019-03-06T21:26:53.103Z,6.64
2019-03-06T21:31:57.546Z,6.68
2019-03-06T21:37:01.687Z,6.78
2019-03-06T21:42:05.936Z,6.79
2019-03-06T21:47:10.010Z,6.90
2019-03-06T21:52:13.967Z,6.92
2019-03-06T21:57:17.905Z,6.75
2019-03-06T22:02:22.053Z,6.74
2019-03-06T22:07:26.077Z,6.76
2019-03-06T22:12:29.820Z,6.58
2019-03-06T22:17:33.939Z,6.73
2019-03-06T22:22:37.919Z,6.52
2019-03-06T22:27:41.734Z,6.52
2019-03-06T22:32:45.495Z,6.50
2019-03-06T22:37:49.367Z,6.55
2019-03-06T22:42:53.325Z,6.39
2019-03-06T22:47:57.122Z,6.46
2019-03-06T22:53:00.901Z,6.48
2019-03-06T22:58:05.114Z,6.30
2019-03-06T23:03:08.925Z,6.47
2019-03-06T23:08:12.654Z,6.52
2019-03-06T23:13:16.420Z,6.54
2019-03-06T23:18:20.345Z,6.35
2019-03-06T23:23:24.276Z,6.40
2019-03-06T23:28:28.014Z,6.27
2019-03-06T23:33:31.932Z,6.00
2019-03-06T23:38:35.836Z,6.00
2019-03-06T23:43:39.578Z,6.18
2019-03-06T23:48:43.377Z,5.89
2019-03-06T23:53:48.744Z,5.88
2019-03-06T23:58:52.525Z,6.05
